Time;durP1;ratioP1;P1;durP2;ratioP2;P2;SDS_P1;SDS_P2;PMS_P1;PMS_P2;Temp;Humidity;BMP_temperature;BMP_pressure;BME280_temperature;BME280_humidity;BME280_pressure;Samples;Min_cycle;Max_cycle;Signal;HPM_P1;HPM_P2
2022/02/05 00:00:14;;;;;;;7.5;12;;;;;;;5.7;67.8;98050;;;;
2022/02/05 00:11:08;;;;;;;7.5;12;;;;;;;5.8;67.9;98050;;;;
2022/02/05 00:41:49;;;;;;;6.8;10.6;;;;;;;5.8;67.9;98040;;;;
2022/02/05 00:51:45;;;;;;;6.3;9.7;;;;;;;5.8;67.5;98050;;;;
2022/02/05 01:01:41;;;;;;;6.3;9.7;;;;;;;5.8;67.6;98050;;;;
2022/02/05 01:11:41;;;;;;;6.3;9.7;;;;;;;5.8;67.4;98050;;;;
2022/02/05 01:21:48;;;;;;;7.2;9.4;;;;;;;5.9;67.6;98050;;;;
2022/02/05 01:32:47;;;;;;;7.2;9.4;;;;;;;5.9;67.6;98040;;;;
2022/02/05 01:54:11;;;;;;;7.1;12;;;;;;;5.9;67.9;98030;;;;
2022/02/05 02:05:00;;;;;;;7.1;12;;;;;;;5.9;68;98040;;;;
2022/02/05 02:15:47;;;;;;;6.2;7.8;;;;;;;5.9;68.3;98040;;;;
2022/02/05 02:26:57;;;;;;;6.2;7.8;;;;;;;5.7;68.4;98010;;;;
2022/02/05 02:36:47;;;;;;;6.2;7.8;;;;;;;5.8;68.6;98040;;;;
2022/02/05 02:47:43;;;;;;;7.1;8.7;;;;;;;5.8;68.5;98050;;;;
2022/02/05 02:57:41;;;;;;;7.1;8.7;;;;;;;5.9;68.5;98060;;;;
2022/02/05 03:08:43;;;;;;;7.1;8.7;;;;;;;5.9;68.1;98040;;;;
2022/02/05 03:18:48;;;;;;;6.6;8.8;;;;;;;6;67.9;98040;;;;
2022/02/05 03:29:42;;;;;;;6.6;8.8;;;;;;;6;67.7;98040;;;;
2022/02/05 03:39:41;;;;;;;6.6;8.8;;;;;;;6;67.9;98060;;;;
2022/02/05 03:50:41;;;;;;;5.9;8.2;;;;;;;6.1;67.8;98060;;;;
2022/02/05 04:01:41;;;;;;;5.9;8.2;;;;;;;6.2;67.6;98070;;;;
2022/02/05 04:11:56;;;;;;;5.7;8.6;;;;;;;6.2;68.3;98070;;;;
2022/02/05 04:22:41;;;;;;;5.7;8.6;;;;;;;6.2;69.3;98070;;;;
2022/02/05 04:33:41;;;;;;;5.7;8.6;;;;;;;6.1;69.5;98070;;;;
2022/02/05 04:43:57;;;;;;;5.1;7.6;;;;;;;6.1;69.4;98080;;;;
2022/02/05 04:54:57;;;;;;;5.1;7.6;;;;;;;6.1;70.4;98100;;;;
2022/02/05 05:04:47;;;;;;;5.1;7.6;;;;;;;6.1;72.2;98110;;;;
2022/02/05 05:24:41;;;;;;;4.3;7.9;;;;;;;6.4;72.5;98150;;;;
2022/02/05 05:35:41;;;;;;;4.3;7.9;;;;;;;5.5;75.8;98220;;;;
2022/02/05 05:46:43;;;;;;;3.6;6.1;;;;;;;4.9;76.5;98280;;;;
2022/02/05 05:56:41;;;;;;;3.6;6.1;;;;;;;4.7;73.3;98290;;;;
2022/02/05 06:06:41;;;;;;;3.6;6.1;;;;;;;4.4;72.5;98330;;;;
2022/02/05 06:16:43;;;;;;;1.8;2.8;;;;;;;4.2;71.6;98380;;;;
2022/02/05 06:26:41;;;;;;;1.8;2.8;;;;;;;4.2;69.8;98400;;;;
2022/02/05 06:36:41;;;;;;;1.8;2.8;;;;;;;4;68.8;98430;;;;
2022/02/05 06:46:41;;;;;;;1.7;3.4;;;;;;;3.8;69.6;98450;;;;
2022/02/05 06:56:41;;;;;;;1.7;3.4;;;;;;;3.6;70.3;98470;;;;
2022/02/05 07:06:41;;;;;;;1.7;3.4;;;;;;;3.5;71.1;98490;;;;
2022/02/05 07:17:48;;;;;;;2.8;4.7;;;;;;;3.8;70.4;98520;;;;
2022/02/05 07:37:41;;;;;;;2.8;4.7;;;;;;;4.3;67.9;98540;;;;
2022/02/05 07:48:41;;;;;;;6;13.1;;;;;;;4.3;67.4;98560;;;;
2022/02/05 07:58:41;;;;;;;6;13.1;;;;;;;4.3;66.6;98570;;;;
2022/02/05 08:09:51;;;;;;;6;13.1;;;;;;;4.4;65.8;98590;;;;
2022/02/05 08:20:41;;;;;;;4.1;8.5;;;;;;;4.6;65;98610;;;;
2022/02/05 08:30:41;;;;;;;4.1;8.5;;;;;;;4.7;64.7;98620;;;;
2022/02/05 08:41:41;;;;;;;3.8;7;;;;;;;4.7;62.7;98630;;;;
2022/02/05 08:51:41;;;;;;;3.8;7;;;;;;;5;61.8;98630;;;;
2022/02/05 09:02:47;;;;;;;3.8;7;;;;;;;5;60.4;98630;;;;
2022/02/05 09:13:07;;;;;;;3.2;7;;;;;;;5;60.7;98650;;;;
2022/02/05 09:23:41;;;;;;;3.2;7;;;;;;;4.9;60.6;98660;;;;
2022/02/05 09:33:41;;;;;;;3.2;7;;;;;;;5;59.8;98670;;;;
2022/02/05 09:44:41;;;;;;;3.4;7.1;;;;;;;5.3;58.8;98670;;;;
2022/02/05 09:55:41;;;;;;;3.4;7.1;;;;;;;5.6;58.3;98660;;;;
2022/02/05 10:05:41;;;;;;;3.4;7.1;;;;;;;5.6;57.3;98670;;;;
2022/02/05 10:15:41;;;;;;;3.5;5.9;;;;;;;5.6;55.9;98650;;;;
2022/02/05 10:26:41;;;;;;;3.5;5.9;;;;;;;5.9;56.4;98650;;;;
2022/02/05 10:36:42;;;;;;;3.5;5.9;;;;;;;6.2;54.7;98660;;;;
2022/02/05 10:46:42;;;;;;;3.5;7.5;;;;;;;6.3;53.7;98650;;;;
2022/02/05 10:57:55;;;;;;;3.5;7.5;;;;;;;6.5;52;98650;;;;
2022/02/05 11:07:41;;;;;;;3.5;7.5;;;;;;;6.3;52.1;98640;;;;
2022/02/05 11:18:52;;;;;;;2.9;5.8;;;;;;;5.9;55;98670;;;;
2022/02/05 11:28:41;;;;;;;2.9;5.8;;;;;;;6;55.4;98650;;;;
2022/02/05 11:38:42;;;;;;;2.9;5.8;;;;;;;6.4;55.2;98650;;;;
2022/02/05 11:49:41;;;;;;;5.2;8.1;;;;;;;6.4;55.8;98660;;;;
2022/02/05 12:00:41;;;;;;;5.2;8.1;;;;;;;5;66.1;98710;;;;
2022/02/05 12:10:42;;;;;;;6.2;10;;;;;;;5.4;68.7;98670;;;;
2022/02/05 12:20:41;;;;;;;6.2;10;;;;;;;5.3;66.4;98690;;;;
2022/02/05 12:30:42;;;;;;;6.2;10;;;;;;;4.5;67.7;98740;;;;
2022/02/05 12:41:41;;;;;;;5.6;8.3;;;;;;;2.8;76.2;98690;;;;
2022/02/05 12:52:41;;;;;;;5.6;8.3;;;;;;;3;77.3;98720;;;;
2022/02/05 13:02:42;;;;;;;5.6;8.3;;;;;;;4.1;76.5;98720;;;;
2022/02/05 13:12:42;;;;;;;5.1;8.3;;;;;;;4.3;74.6;98720;;;;
2022/02/05 13:34:41;;;;;;;5.1;8.3;;;;;;;5.3;70.2;98700;;;;
2022/02/05 13:44:41;;;;;;;6.1;10.2;;;;;;;5.3;67.4;98710;;;;
2022/02/05 13:54:41;;;;;;;6.1;10.2;;;;;;;5.3;67.3;98730;;;;
2022/02/05 14:04:41;;;;;;;6.1;10.2;;;;;;;5.1;67.4;98740;;;;
2022/02/05 14:15:41;;;;;;;6.3;9.9;;;;;;;4.5;69;98730;;;;
2022/02/05 14:25:41;;;;;;;6.3;9.9;;;;;;;4.4;69.8;98750;;;;
2022/02/05 14:36:01;;;;;;;6.3;9.9;;;;;;;4;71.1;98800;;;;
2022/02/05 14:45:41;;;;;;;5.8;8.3;;;;;;;3;76.8;98820;;;;
2022/02/05 14:56:41;;;;;;;5.8;8.3;;;;;;;2.5;79.2;98810;;;;
2022/02/05 15:06:44;;;;;;;5.8;8.3;;;;;;;2.2;80.2;98830;;;;
2022/02/05 15:16:41;;;;;;;6;9.4;;;;;;;2;80.6;98840;;;;
2022/02/05 15:27:41;;;;;;;6;9.4;;;;;;;1.8;82.1;98880;;;;
2022/02/05 15:38:46;;;;;;;6;9.4;;;;;;;1.8;82.3;98890;;;;
2022/02/05 15:48:41;;;;;;;7.8;10.4;;;;;;;1.8;82.7;98900;;;;
2022/02/05 15:59:53;;;;;;;7.8;10.4;;;;;;;1.4;83.3;98880;;;;
2022/02/05 16:09:43;;;;;;;11.6;13.6;;;;;;;1.3;83.3;98920;;;;
2022/02/05 16:20:41;;;;;;;11.6;13.6;;;;;;;1.3;83.4;98930;;;;
2022/02/05 16:30:41;;;;;;;11.6;13.6;;;;;;;1.4;83.3;98940;;;;
2022/02/05 16:40:41;;;;;;;12.6;15.7;;;;;;;1.4;82.7;98930;;;;
2022/02/05 16:50:41;;;;;;;12.6;15.7;;;;;;;1.2;82.5;98950;;;;
2022/02/05 17:00:41;;;;;;;12.6;15.7;;;;;;;1.1;81.9;98980;;;;
2022/02/05 17:10:41;;;;;;;14.8;18.7;;;;;;;1.1;81.1;98990;;;;
2022/02/05 17:21:41;;;;;;;14.8;18.7;;;;;;;1.2;80.3;98990;;;;
2022/02/05 17:32:44;;;;;;;14.8;18.7;;;;;;;1.1;80.5;99000;;;;
2022/02/05 17:42:41;;;;;;;14.5;20.7;;;;;;;1.1;80.9;99000;;;;
2022/02/05 17:53:41;;;;;;;14.5;20.7;;;;;;;1;81.4;99010;;;;
2022/02/05 18:03:42;;;;;;;14.5;20.7;;;;;;;0.9;81.6;99020;;;;
2022/02/05 18:14:46;;;;;;;17.4;23.6;;;;;;;0.9;82.3;99020;;;;
2022/02/05 18:24:41;;;;;;;17.4;23.6;;;;;;;1.2;82.3;99030;;;;
2022/02/05 18:35:41;;;;;;;17.4;23.6;;;;;;;1.4;82;99030;;;;
2022/02/05 18:45:43;;;;;;;18.7;23.8;;;;;;;1.5;81.7;99030;;;;
2022/02/05 18:55:41;;;;;;;18.7;23.8;;;;;;;1.6;81.5;99030;;;;
2022/02/05 19:26:41;;;;;;;25.7;29.2;;;;;;;1.6;81.1;99030;;;;
2022/02/05 19:36:41;;;;;;;25.7;29.2;;;;;;;1.5;80.6;99030;;;;
2022/02/05 19:46:47;;;;;;;32.1;38.8;;;;;;;1.2;80.2;99020;;;;
2022/02/05 19:57:41;;;;;;;32.1;38.8;;;;;;;0.9;80.4;99020;;;;
2022/02/05 20:08:41;;;;;;;32.1;38.8;;;;;;;0.7;80.7;99030;;;;
2022/02/05 20:19:41;;;;;;;29.2;33.4;;;;;;;0.6;80.5;99030;;;;
2022/02/05 20:30:41;;;;;;;29.2;33.4;;;;;;;0.6;80;99020;;;;
2022/02/05 20:41:41;;;;;;;29.5;37.2;;;;;;;0.5;80;99030;;;;
2022/02/05 20:52:48;;;;;;;29.5;37.2;;;;;;;0.8;79.7;99020;;;;
2022/02/05 21:03:43;;;;;;;29.5;37.2;;;;;;;0.9;78.9;99020;;;;
2022/02/05 21:14:41;;;;;;;16.1;21.5;;;;;;;1.2;77.5;99010;;;;
2022/02/05 21:24:41;;;;;;;16.1;21.5;;;;;;;1.2;76.7;99000;;;;
2022/02/05 21:34:45;;;;;;;16.1;21.5;;;;;;;1.3;76.5;99000;;;;
2022/02/05 21:45:42;;;;;;;13.2;17.4;;;;;;;1.3;76.2;99010;;;;
2022/02/05 21:55:44;;;;;;;13.2;17.4;;;;;;;1.4;75.6;99000;;;;
2022/02/05 22:05:41;;;;;;;13.2;17.4;;;;;;;1.4;75.4;99000;;;;
2022/02/05 22:16:41;;;;;;;13.7;16.3;;;;;;;1.4;75.2;99000;;;;
2022/02/05 22:26:41;;;;;;;13.7;16.3;;;;;;;1.2;76.6;98990;;;;
2022/02/05 22:37:41;;;;;;;13.7;16.3;;;;;;;1.1;76.2;98980;;;;
2022/02/05 22:47:41;;;;;;;17;24.4;;;;;;;0.8;76.4;98970;;;;
2022/02/05 22:57:42;;;;;;;17;24.4;;;;;;;0.6;76.3;98970;;;;
2022/02/05 23:07:42;;;;;;;17;24.4;;;;;;;0.5;76.4;98960;;;;
2022/02/05 23:40:57;;;;;;;11.1;15.9;;;;;;;1;74.8;98940;;;;
2022/02/05 23:49:44;;;;;;;11.1;15.9;;;;;;;1.1;73.9;98930;;;;
2022/02/05 23:59:45;;;;;;;11.1;15.9;;;;;;;1;73.9;98920;;;;
